Time;durP1;ratioP1;P1;durP2;ratioP2;P2;SDS_P1;SDS_P2;PMS_P1;PMS_P2;Temp;Humidity;BMP_temperature;BMP_pressure;BME280_temperature;BME280_humidity;BME280_pressure;Samples;Min_cycle;Max_cycle;Signal;HPM_P1;HPM_P2
2024/01/04 00:00:31;;;;;;;15.23;5.72;;;8.90;99.90;;;;;;5055773;28;20036;-70
2024/01/04 00:02:57;;;;;;;12.35;5.47;;;8.90;99.90;;;;;;5061807;28;20013;-69
2024/01/04 00:05:23;;;;;;;13.80;5.55;;;8.90;99.90;;;;;;5053022;28;20470;-69
2024/01/04 00:07:49;;;;;;;16.17;5.85;;;8.90;99.90;;;;;;5035009;28;20021;-69
2024/01/04 00:10:14;;;;;;;15.93;5.63;;;8.90;99.90;;;;;;5059674;28;20050;-69
2024/01/04 00:12:41;;;;;;;11.05;5.50;;;8.90;99.90;;;;;;5051261;28;20535;-69
2024/01/04 00:15:10;;;;;;;11.93;5.00;;;8.80;99.90;;;;;;5061210;28;20039;-69
2024/01/04 00:17:36;;;;;;;13.75;5.32;;;8.90;99.90;;;;;;5055687;28;20489;-69
2024/01/04 00:20:02;;;;;;;12.38;4.43;;;8.90;99.90;;;;;;5052729;28;20063;-69
2024/01/04 00:22:28;;;;;;;10.68;4.70;;;8.90;99.90;;;;;;5043035;28;20017;-69
2024/01/04 00:24:54;;;;;;;11.90;4.85;;;8.90;99.90;;;;;;5041232;28;20021;-71
2024/01/04 00:27:19;;;;;;;13.30;4.35;;;8.90;99.90;;;;;;5053221;28;20025;-69
2024/01/04 00:29:45;;;;;;;11.20;3.88;;;8.90;99.90;;;;;;5038135;28;20029;-69
2024/01/04 00:32:11;;;;;;;10.25;3.72;;;8.90;99.90;;;;;;5061360;28;20021;-69
2024/01/04 00:34:37;;;;;;;12.25;3.75;;;8.90;99.90;;;;;;5055516;28;20024;-69
2024/01/04 00:37:06;;;;;;;11.65;4.05;;;8.90;99.90;;;;;;5052945;28;20020;-69
2024/01/04 00:39:32;;;;;;;13.07;4.57;;;9.00;99.90;;;;;;5059623;28;20049;-69
2024/01/04 00:42:02;;;;;;;8.38;3.03;;;9.00;99.90;;;;;;5059649;28;20037;-69
2024/01/04 00:44:28;;;;;;;17.55;3.92;;;9.00;99.90;;;;;;5052544;28;20025;-70
2024/01/04 00:46:53;;;;;;;9.73;3.35;;;9.00;99.90;;;;;;5055574;28;20375;-70
2024/01/04 00:49:19;;;;;;;11.95;3.58;;;9.00;99.90;;;;;;5060548;28;20078;-70
2024/01/04 00:51:46;;;;;;;17.77;4.05;;;9.00;99.90;;;;;;5056247;28;20028;-70
2024/01/04 00:54:12;;;;;;;8.38;3.42;;;9.00;99.90;;;;;;5034350;28;20056;-70
2024/01/04 00:56:38;;;;;;;13.70;3.83;;;9.00;99.90;;;;;;5059044;28;20029;-70
2024/01/04 00:59:04;;;;;;;11.48;4.05;;;9.00;99.90;;;;;;5060210;28;20044;-70
2024/01/04 01:01:33;;;;;;;12.73;3.83;;;9.00;99.90;;;;;;5052785;28;20059;-70
2024/01/04 01:04:01;;;;;;;20.13;3.85;;;9.00;99.90;;;;;;5034796;28;20028;-70
2024/01/04 01:06:27;;;;;;;10.77;3.65;;;9.10;99.90;;;;;;5041047;28;20021;-69
2024/01/04 01:08:53;;;;;;;8.48;2.85;;;9.00;99.90;;;;;;5056813;28;20024;-70
2024/01/04 01:11:18;;;;;;;13.65;3.38;;;9.00;99.90;;;;;;5052364;28;20040;-70
2024/01/04 01:13:44;;;;;;;12.48;3.10;;;9.00;99.90;;;;;;5052570;28;20032;-70
2024/01/04 01:16:10;;;;;;;9.90;3.33;;;9.00;99.90;;;;;;5055760;28;20135;-69
2024/01/04 01:18:37;;;;;;;7.90;2.90;;;9.00;99.90;;;;;;5060318;28;20024;-71
2024/01/04 01:21:03;;;;;;;10.05;2.95;;;9.00;99.90;;;;;;5054245;28;20044;-70
2024/01/04 01:23:29;;;;;;;9.52;2.40;;;9.00;99.90;;;;;;5034245;28;20021;-69
2024/01/04 01:25:54;;;;;;;10.93;3.10;;;9.00;99.90;;;;;;5059301;28;21043;-70
2024/01/04 01:28:20;;;;;;;11.30;2.38;;;9.00;99.90;;;;;;5059392;28;20411;-71
2024/01/04 01:30:46;;;;;;;13.88;2.15;;;8.90;99.90;;;;;;5051744;28;20481;-70
2024/01/04 01:33:11;;;;;;;9.05;2.38;;;8.90;99.90;;;;;;5055868;28;20029;-69
2024/01/04 01:35:37;;;;;;;10.52;2.65;;;8.90;99.90;;;;;;5060232;28;20103;-72
2024/01/04 01:38:03;;;;;;;15.43;2.63;;;8.90;99.90;;;;;;5036829;28;20041;-70
2024/01/04 01:40:29;;;;;;;12.75;2.83;;;8.90;99.90;;;;;;5051757;28;20044;-69
2024/01/04 01:42:54;;;;;;;11.80;3.28;;;8.90;99.90;;;;;;5059770;28;20024;-70
2024/01/04 01:45:20;;;;;;;9.15;3.00;;;8.90;99.90;;;;;;5040881;28;20024;-69
2024/01/04 01:47:47;;;;;;;9.13;2.97;;;8.90;99.90;;;;;;5052151;28;20120;-70
2024/01/04 01:50:14;;;;;;;9.00;3.17;;;8.90;99.90;;;;;;5055117;28;20021;-70
2024/01/04 01:52:41;;;;;;;10.98;2.80;;;8.90;99.90;;;;;;5042182;28;20513;-70
2024/01/04 01:55:11;;;;;;;9.30;2.08;;;8.90;99.90;;;;;;5036980;28;20129;-69
2024/01/04 01:57:37;;;;;;;11.10;2.38;;;8.80;99.90;;;;;;5052483;28;20098;-69
2024/01/04 02:00:04;;;;;;;10.85;2.83;;;8.90;99.90;;;;;;5058151;28;20571;-69
2024/01/04 02:02:30;;;;;;;11.63;2.92;;;8.90;99.90;;;;;;5060146;28;20169;-70
2024/01/04 02:04:56;;;;;;;12.27;2.65;;;8.80;99.90;;;;;;5041236;28;20016;-70
2024/01/04 02:07:23;;;;;;;10.95;2.58;;;8.80;99.90;;;;;;5054084;28;20025;-70
2024/01/04 02:09:49;;;;;;;15.00;3.08;;;8.80;99.90;;;;;;5059802;28;20028;-69
2024/01/04 02:12:15;;;;;;;12.18;3.15;;;8.80;99.90;;;;;;5050074;28;20021;-69
2024/01/04 02:14:41;;;;;;;12.35;3.10;;;8.80;99.90;;;;;;5058037;28;20052;-69
2024/01/04 02:17:07;;;;;;;15.02;3.17;;;8.80;99.90;;;;;;5051989;28;20419;-70
2024/01/04 02:19:33;;;;;;;8.35;2.70;;;8.80;99.90;;;;;;5054917;28;20094;-69
2024/01/04 02:22:02;;;;;;;12.90;3.25;;;8.80;99.90;;;;;;5059910;28;20024;-69
2024/01/04 02:24:28;;;;;;;12.07;3.03;;;8.80;99.90;;;;;;5036455;28;20454;-69
2024/01/04 02:26:53;;;;;;;9.50;2.60;;;8.80;99.90;;;;;;5033783;28;20022;-71
2024/01/04 02:29:19;;;;;;;9.65;2.83;;;8.80;99.90;;;;;;5059062;28;20171;-69
2024/01/04 02:31:48;;;;;;;12.13;3.30;;;8.80;99.90;;;;;;5061326;28;20474;-71
2024/01/04 02:34:13;;;;;;;15.40;3.90;;;8.80;99.90;;;;;;5055039;28;20028;-69
2024/01/04 02:36:39;;;;;;;11.23;3.25;;;8.70;99.90;;;;;;5058194;28;20029;-69
2024/01/04 02:39:04;;;;;;;10.88;3.30;;;8.70;99.90;;;;;;5063207;28;20041;-69
2024/01/04 02:41:30;;;;;;;13.10;3.60;;;8.70;99.90;;;;;;5031248;28;20029;-69
2024/01/04 02:43:56;;;;;;;16.88;3.92;;;8.70;99.90;;;;;;5063476;28;20127;-69
2024/01/04 02:46:22;;;;;;;14.77;4.22;;;8.70;99.90;;;;;;5056076;28;20074;-70
2024/01/04 02:48:47;;;;;;;15.73;3.50;;;8.70;99.90;;;;;;5038194;28;20475;-69
2024/01/04 02:51:13;;;;;;;14.57;4.63;;;8.70;99.90;;;;;;5063059;28;20021;-69
2024/01/04 02:53:39;;;;;;;13.30;4.05;;;8.80;99.90;;;;;;5059836;28;20446;-69
2024/01/04 02:56:04;;;;;;;12.48;4.50;;;8.70;99.90;;;;;;5054530;28;20047;-70
2024/01/04 02:58:30;;;;;;;14.98;3.85;;;8.70;99.90;;;;;;5060180;28;20137;-70
2024/01/04 03:00:57;;;;;;;16.98;4.25;;;8.70;99.90;;;;;;5062477;28;20029;-69
2024/01/04 03:03:22;;;;;;;13.48;4.00;;;8.70;99.90;;;;;;5056245;28;20873;-69
2024/01/04 03:05:48;;;;;;;14.60;3.35;;;8.70;99.90;;;;;;5064692;28;20016;-69
2024/01/04 03:08:14;;;;;;;12.45;3.30;;;8.70;99.90;;;;;;5036819;28;20021;-69
2024/01/04 03:10:40;;;;;;;9.90;3.90;;;8.70;99.90;;;;;;5057203;28;20025;-69
2024/01/04 03:13:07;;;;;;;10.90;4.13;;;8.70;99.90;;;;;;5052172;28;20044;-69
2024/01/04 03:15:32;;;;;;;12.98;3.92;;;8.70;99.90;;;;;;5062592;28;20036;-69
2024/01/04 03:17:58;;;;;;;11.02;3.97;;;8.70;99.90;;;;;;5041872;28;20029;-69
2024/01/04 03:20:24;;;;;;;12.75;3.70;;;8.70;99.90;;;;;;5054164;28;20367;-69
2024/01/04 03:22:49;;;;;;;16.88;4.20;;;8.70;99.90;;;;;;5059342;28;20379;-70
2024/01/04 03:25:15;;;;;;;14.27;3.63;;;8.70;99.90;;;;;;5062205;28;20099;-69
2024/01/04 03:27:42;;;;;;;10.30;3.70;;;8.70;99.90;;;;;;5055805;28;20028;-69
2024/01/04 03:30:08;;;;;;;8.07;3.67;;;8.70;99.90;;;;;;5032897;28;20025;-71
2024/01/04 03:32:34;;;;;;;11.18;3.70;;;8.70;99.90;;;;;;5053861;28;20027;-70
2024/01/04 03:35:00;;;;;;;15.50;3.75;;;8.70;99.90;;;;;;5038359;28;20508;-69
2024/01/04 03:37:25;;;;;;;13.30;3.92;;;8.70;99.90;;;;;;5062194;28;20474;-69
2024/01/04 03:39:51;;;;;;;11.43;3.60;;;8.70;99.90;;;;;;5057063;28;20136;-70
2024/01/04 03:42:17;;;;;;;13.40;3.08;;;8.70;99.90;;;;;;5033868;28;20052;-69
2024/01/04 03:44:43;;;;;;;15.35;3.95;;;8.70;99.90;;;;;;5055260;28;20410;-69
2024/01/04 03:47:09;;;;;;;12.55;3.70;;;8.80;99.90;;;;;;5054436;28;20028;-69
2024/01/04 03:49:35;;;;;;;13.93;3.42;;;8.80;99.90;;;;;;5061936;28;20029;-70
2024/01/04 03:52:01;;;;;;;12.20;3.55;;;8.70;99.90;;;;;;5041392;28;20054;-70
2024/01/04 03:54:27;;;;;;;11.82;4.03;;;8.70;99.90;;;;;;5055282;28;20025;-70
2024/01/04 03:56:54;;;;;;;12.48;3.95;;;8.70;99.90;;;;;;5057532;28;20071;-70
2024/01/04 03:59:19;;;;;;;12.43;3.85;;;8.70;99.90;;;;;;5053815;28;20024;-70
2024/01/04 04:01:45;;;;;;;9.63;3.88;;;8.70;99.90;;;;;;5041617;28;20029;-70
2024/01/04 04:04:12;;;;;;;12.02;3.92;;;8.70;99.90;;;;;;5040306;28;20009;-70
2024/01/04 04:06:38;;;;;;;10.13;3.42;;;8.70;99.90;;;;;;5021403;28;20024;-70
2024/01/04 04:09:06;;;;;;;14.40;4.05;;;8.70;99.90;;;;;;5055706;28;20466;-70
2024/01/04 04:11:32;;;;;;;12.07;4.05;;;8.70;99.90;;;;;;5061839;28;20040;-70
2024/01/04 04:13:58;;;;;;;14.80;3.80;;;8.70;99.90;;;;;;5061307;28;20355;-70
2024/01/04 04:16:24;;;;;;;10.48;4.00;;;8.70;99.90;;;;;;5059645;28;20505;-70
2024/01/04 04:18:49;;;;;;;12.95;3.90;;;8.70;99.90;;;;;;5053346;28;20052;-70
2024/01/04 04:21:23;;;;;;;9.82;3.42;;;8.70;99.90;;;;;;5056704;28;20059;-70
2024/01/04 04:23:50;;;;;;;12.02;3.58;;;8.70;99.90;;;;;;5061481;28;20049;-70
2024/01/04 04:26:22;;;;;;;10.60;3.10;;;8.70;99.90;;;;;;5056403;28;20016;-70
2024/01/04 04:28:48;;;;;;;8.95;2.85;;;8.60;99.90;;;;;;5053131;28;20053;-70
2024/01/04 04:31:18;;;;;;;11.45;3.28;;;8.60;99.90;;;;;;5058249;28;20021;-70
2024/01/04 04:33:46;;;;;;;10.10;3.20;;;8.70;99.90;;;;;;5060749;28;20032;-70
2024/01/04 04:36:12;;;;;;;10.35;3.13;;;8.70;99.90;;;;;;5036021;28;20020;-70
2024/01/04 04:38:38;;;;;;;8.23;2.85;;;8.60;99.90;;;;;;5053279;28;20044;-69
2024/01/04 04:41:05;;;;;;;10.07;2.50;;;8.70;99.90;;;;;;5022907;28;20475;-71
2024/01/04 04:43:34;;;;;;;6.30;2.60;;;8.60;99.90;;;;;;5050109;28;20107;-70
2024/01/04 04:46:02;;;;;;;6.22;2.80;;;8.60;99.90;;;;;;5052615;28;20103;-69
2024/01/04 04:48:27;;;;;;;9.35;2.80;;;8.60;99.90;;;;;;5056512;28;20548;-69
2024/01/04 04:50:54;;;;;;;8.85;3.17;;;8.60;99.90;;;;;;5060289;28;20120;-70
2024/01/04 04:53:22;;;;;;;11.63;3.00;;;8.60;99.90;;;;;;5037123;28;20021;-70
2024/01/04 04:55:48;;;;;;;9.80;2.97;;;8.60;99.90;;;;;;5052368;28;20025;-70
2024/01/04 04:58:14;;;;;;;6.90;2.63;;;8.60;99.90;;;;;;5060100;28;20505;-70
2024/01/04 05:00:40;;;;;;;11.60;3.00;;;8.60;99.90;;;;;;5059117;28;20028;-70
2024/01/04 05:03:06;;;;;;;9.52;3.30;;;8.60;99.90;;;;;;5052909;28;20020;-70
2024/01/04 05:05:32;;;;;;;8.63;2.85;;;8.60;99.90;;;;;;5044713;28;20490;-70
2024/01/04 05:07:58;;;;;;;8.05;3.17;;;8.60;99.90;;;;;;5049628;28;20039;-70
2024/01/04 05:10:24;;;;;;;8.75;3.58;;;8.60;99.90;;;;;;5055407;28;20013;-70
2024/01/04 05:12:49;;;;;;;9.32;3.10;;;8.60;99.90;;;;;;5062601;28;20020;-70
2024/01/04 05:15:15;;;;;;;8.68;2.85;;;8.60;99.90;;;;;;5052338;28;20016;-71
2024/01/04 05:17:41;;;;;;;7.50;3.25;;;8.60;99.90;;;;;;5057407;28;20091;-70
2024/01/04 05:20:07;;;;;;;9.52;2.67;;;8.60;99.90;;;;;;5060166;28;20056;-70
2024/01/04 05:22:33;;;;;;;11.27;3.00;;;8.60;99.90;;;;;;5053511;28;20786;-70
2024/01/04 05:24:59;;;;;;;10.77;3.45;;;8.60;99.90;;;;;;5052871;28;20029;-70
2024/01/04 05:27:27;;;;;;;10.88;3.03;;;8.60;99.90;;;;;;5060433;28;20549;-70
2024/01/04 05:29:54;;;;;;;8.98;3.38;;;8.60;99.90;;;;;;5057438;28;20052;-70
2024/01/04 05:32:20;;;;;;;14.05;3.50;;;8.60;99.90;;;;;;5052559;28;20020;-71
2024/01/04 05:34:45;;;;;;;10.02;3.10;;;8.60;99.90;;;;;;5056844;28;20032;-70
2024/01/04 05:37:11;;;;;;;8.90;2.78;;;8.60;99.90;;;;;;5028351;28;20052;-69
2024/01/04 05:39:37;;;;;;;9.15;3.30;;;8.60;99.90;;;;;;5053813;28;20418;-70
2024/01/04 05:42:03;;;;;;;9.05;3.35;;;8.70;99.90;;;;;;5052667;28;20355;-70
2024/01/04 05:44:28;;;;;;;13.50;3.88;;;8.60;99.90;;;;;;5060691;28;20033;-70
2024/01/04 05:46:54;;;;;;;9.27;3.90;;;8.60;99.90;;;;;;5057501;28;20473;-70
2024/01/04 05:49:20;;;;;;;9.15;3.35;;;8.60;99.90;;;;;;5052261;28;20021;-70
2024/01/04 05:51:45;;;;;;;8.70;3.30;;;8.60;99.90;;;;;;5056096;28;20047;-70
2024/01/04 05:54:11;;;;;;;11.35;3.20;;;8.60;99.90;;;;;;5060399;28;20103;-70
2024/01/04 05:56:37;;;;;;;8.00;3.10;;;8.60;99.90;;;;;;5053681;28;20367;-70
2024/01/04 05:59:02;;;;;;;8.68;3.03;;;8.70;99.90;;;;;;5052756;28;20499;-70
2024/01/04 06:01:28;;;;;;;15.85;3.80;;;8.60;99.90;;;;;;5060054;28;20021;-70
2024/01/04 06:03:54;;;;;;;11.65;3.70;;;8.70;99.90;;;;;;5056236;28;20450;-71
2024/01/04 06:06:20;;;;;;;9.13;3.85;;;8.70;99.90;;;;;;5061827;28;20113;-70
2024/01/04 06:08:45;;;;;;;10.25;3.90;;;8.70;99.90;;;;;;5059290;28;20081;-70
2024/01/04 06:11:11;;;;;;;15.75;4.32;;;8.70;99.90;;;;;;5055687;28;20029;-70
2024/01/04 06:13:37;;;;;;;19.20;4.47;;;8.70;99.90;;;;;;5037728;28;20135;-70
2024/01/04 06:16:09;;;;;;;17.70;4.50;;;8.70;99.90;;;;;;5060118;28;20546;-69
2024/01/04 06:18:35;;;;;;;19.40;4.65;;;8.70;99.90;;;;;;5046043;28;20040;-70
2024/01/04 06:21:01;;;;;;;12.63;4.25;;;8.70;99.90;;;;;;5057680;28;20021;-70
2024/01/04 06:23:28;;;;;;;15.25;4.25;;;8.70;99.90;;;;;;5055779;28;20028;-70
2024/01/04 06:25:54;;;;;;;9.48;4.05;;;8.70;99.90;;;;;;5062936;28;20062;-70
2024/01/04 06:28:20;;;;;;;12.60;4.13;;;8.70;99.90;;;;;;5062186;28;20416;-70
2024/01/04 06:30:46;;;;;;;10.52;3.90;;;8.60;99.90;;;;;;5037052;28;20504;-70
2024/01/04 06:33:12;;;;;;;11.35;3.75;;;8.60;99.90;;;;;;5058860;28;20021;-70
2024/01/04 06:35:37;;;;;;;11.40;3.70;;;8.70;99.90;;;;;;5052083;28;20036;-70
2024/01/04 06:38:07;;;;;;;8.30;3.00;;;8.60;99.90;;;;;;5060162;28;20296;-70
2024/01/04 06:40:40;;;;;;;10.23;3.07;;;8.60;99.90;;;;;;5058196;28;20494;-70
2024/01/04 06:43:09;;;;;;;10.57;3.70;;;8.60;99.90;;;;;;5057570;28;20022;-70
2024/01/04 06:45:36;;;;;;;9.60;3.30;;;8.60;99.90;;;;;;5054699;28;20561;-70
2024/01/04 06:48:02;;;;;;;12.27;3.80;;;8.60;99.90;;;;;;5062706;28;20028;-70
2024/01/04 06:50:28;;;;;;;7.88;3.00;;;8.60;99.90;;;;;;5061725;28;20103;-70
2024/01/04 06:52:53;;;;;;;8.45;3.28;;;8.60;99.90;;;;;;5036849;28;20115;-70
2024/01/04 06:55:19;;;;;;;7.15;2.90;;;8.60;99.90;;;;;;5062770;28;20031;-70
2024/01/04 06:57:44;;;;;;;8.85;2.92;;;8.60;99.90;;;;;;5055051;28;20021;-70
2024/01/04 07:00:10;;;;;;;10.68;2.75;;;8.60;99.90;;;;;;5060096;28;20488;-70
2024/01/04 07:02:37;;;;;;;6.20;2.60;;;8.60;99.90;;;;;;5053131;28;20038;-70
2024/01/04 07:05:06;;;;;;;10.13;2.88;;;8.60;99.90;;;;;;5058365;28;20335;-70
2024/01/04 07:07:36;;;;;;;6.93;2.40;;;8.60;99.90;;;;;;5055377;28;20071;-70
2024/01/04 07:10:02;;;;;;;8.43;2.80;;;8.60;99.90;;;;;;5054428;28;20362;-70
2024/01/04 07:12:28;;;;;;;8.35;3.20;;;8.50;99.90;;;;;;5054298;28;20028;-70
2024/01/04 07:14:54;;;;;;;11.40;3.00;;;8.50;99.90;;;;;;5062681;28;20463;-71
2024/01/04 07:17:21;;;;;;;10.00;3.00;;;8.50;99.90;;;;;;5029044;28;20033;-70
2024/01/04 07:19:46;;;;;;;10.07;2.92;;;8.50;99.90;;;;;;5060705;28;20082;-70
2024/01/04 07:22:12;;;;;;;8.07;3.30;;;8.50;99.90;;;;;;5053946;28;20428;-70
2024/01/04 07:24:38;;;;;;;8.13;3.00;;;8.50;99.90;;;;;;5054724;28;20021;-70
2024/01/04 07:27:06;;;;;;;9.20;3.00;;;8.50;99.90;;;;;;5046484;28;20025;-70
2024/01/04 07:29:31;;;;;;;5.72;2.83;;;8.50;99.90;;;;;;5040567;28;20029;-70
2024/01/04 07:31:57;;;;;;;6.45;2.72;;;8.50;99.90;;;;;;5013379;28;20028;-70
2024/01/04 07:34:23;;;;;;;6.88;2.85;;;8.50;99.90;;;;;;5051036;28;20077;-70
2024/01/04 07:36:50;;;;;;;8.90;3.22;;;8.50;99.90;;;;;;5032689;28;20029;-70
2024/01/04 07:39:15;;;;;;;9.70;3.13;;;8.50;99.90;;;;;;5019317;28;20417;-70
2024/01/04 07:41:43;;;;;;;9.15;3.33;;;8.50;99.90;;;;;;5026984;28;20067;-70
2024/01/04 07:44:09;;;;;;;9.80;3.22;;;8.50;99.90;;;;;;5038804;28;20108;-70
2024/01/04 07:46:35;;;;;;;9.38;3.85;;;8.50;99.90;;;;;;5028845;28;20115;-70
2024/01/04 07:49:01;;;;;;;11.35;3.63;;;8.50;99.90;;;;;;5054340;28;20108;-70
2024/01/04 07:51:27;;;;;;;10.30;3.55;;;8.50;99.90;;;;;;5057670;28;20654;-70
2024/01/04 07:53:52;;;;;;;7.55;3.70;;;8.60;99.90;;;;;;5051218;28;20032;-70
2024/01/04 07:56:18;;;;;;;11.68;3.80;;;8.50;99.90;;;;;;5021684;28;20092;-70
2024/01/04 07:58:44;;;;;;;9.73;4.05;;;8.50;99.90;;;;;;5013927;28;20049;-70
2024/01/04 08:01:09;;;;;;;11.52;4.05;;;8.50;99.90;;;;;;5028632;28;20035;-70
2024/01/04 08:03:35;;;;;;;16.45;4.57;;;8.50;99.90;;;;;;5044394;28;20071;-70
2024/01/04 08:06:01;;;;;;;10.80;4.55;;;8.50;99.90;;;;;;5057456;28;20426;-70
2024/01/04 08:08:29;;;;;;;9.48;4.57;;;8.50;99.90;;;;;;5052535;28;20051;-70
2024/01/04 08:10:55;;;;;;;14.60;5.10;;;8.50;99.90;;;;;;5023752;28;20450;-70
2024/01/04 08:13:21;;;;;;;13.48;4.88;;;8.50;99.90;;;;;;5040771;28;20027;-70
2024/01/04 08:15:46;;;;;;;10.98;4.75;;;8.50;99.90;;;;;;5031893;28;20033;-70
2024/01/04 08:18:12;;;;;;;12.55;4.55;;;8.50;99.90;;;;;;5029956;28;20041;-70
2024/01/04 08:20:38;;;;;;;16.25;4.63;;;8.50;99.90;;;;;;5059826;28;20402;-70
2024/01/04 08:23:03;;;;;;;8.98;4.10;;;8.50;99.90;;;;;;5038186;28;20124;-70
2024/01/04 08:25:29;;;;;;;9.13;4.30;;;8.50;99.90;;;;;;5061149;28;20041;-70
2024/01/04 08:27:55;;;;;;;13.95;4.15;;;8.50;99.90;;;;;;5056734;28;20028;-70
2024/01/04 08:30:21;;;;;;;11.52;4.50;;;8.50;99.90;;;;;;5052938;28;20056;-70
2024/01/04 08:32:47;;;;;;;12.60;4.68;;;8.50;99.90;;;;;;5043332;28;20024;-70
2024/01/04 08:35:13;;;;;;;11.52;4.63;;;8.50;99.90;;;;;;5035926;28;20371;-69
2024/01/04 08:37:38;;;;;;;10.07;4.20;;;8.50;99.90;;;;;;5060820;28;20025;-69
2024/01/04 08:40:05;;;;;;;8.27;3.72;;;8.50;99.90;;;;;;5033508;28;20137;-70
2024/01/04 08:42:31;;;;;;;9.57;3.92;;;8.50;99.90;;;;;;5059875;28;20087;-70
2024/01/04 08:44:58;;;;;;;10.88;4.13;;;8.50;99.90;;;;;;5056178;28;20024;-70
2024/01/04 08:47:35;;;;;;;10.95;3.92;;;8.50;99.90;;;;;;5042559;28;20035;-72
2024/01/04 08:50:01;;;;;;;9.07;3.80;;;8.50;99.90;;;;;;5055519;28;20494;-70
2024/01/04 08:52:28;;;;;;;10.73;4.20;;;8.50;99.90;;;;;;5052248;28;20127;-70
2024/01/04 08:54:53;;;;;;;7.32;3.78;;;8.50;99.90;;;;;;5059369;28;20123;-71
2024/01/04 08:57:19;;;;;;;8.90;3.80;;;8.50;99.90;;;;;;5042160;28;20119;-70
2024/01/04 08:59:45;;;;;;;10.65;3.83;;;8.50;99.90;;;;;;5052327;28;20024;-71
2024/01/04 09:02:26;;;;;;;12.82;4.10;;;8.50;99.90;;;;;;5037349;28;20025;-70
2024/01/04 09:04:51;;;;;;;10.35;4.28;;;8.60;99.90;;;;;;5055992;28;20036;-70
2024/01/04 09:07:19;;;;;;;10.38;4.13;;;8.50;99.90;;;;;;5014583;28;20017;-70
2024/01/04 09:09:44;;;;;;;11.50;4.18;;;8.50;99.90;;;;;;5024979;28;20017;-70
2024/01/04 09:12:10;;;;;;;15.05;4.68;;;8.60;99.90;;;;;;5048853;28;20047;-70
2024/01/04 09:14:36;;;;;;;13.20;5.00;;;8.60;99.90;;;;;;5042339;28;20375;-70
2024/01/04 09:17:01;;;;;;;12.70;4.88;;;8.60;99.90;;;;;;5038231;28;20112;-70
2024/01/04 09:19:27;;;;;;;14.30;5.93;;;8.60;99.90;;;;;;5025775;28;20024;-70
2024/01/04 09:21:53;;;;;;;13.27;5.68;;;8.60;99.90;;;;;;5020763;28;20029;-70
2024/01/04 09:24:20;;;;;;;15.05;5.78;;;8.60;99.90;;;;;;5041661;28;20013;-70
2024/01/04 09:26:46;;;;;;;15.48;6.80;;;8.60;99.90;;;;;;5052683;28;20025;-71
2024/01/04 09:29:13;;;;;;;16.60;7.10;;;8.60;99.90;;;;;;5060209;28;20028;-70
2024/01/04 09:31:40;;;;;;;18.90;6.38;;;8.60;99.90;;;;;;5049851;28;20032;-70
2024/01/04 09:34:06;;;;;;;16.92;6.68;;;8.60;99.90;;;;;;5040095;28;20124;-70
2024/01/04 09:36:32;;;;;;;22.15;7.15;;;8.60;99.90;;;;;;5053637;28;20479;-70
2024/01/04 09:38:58;;;;;;;16.42;6.43;;;8.70;99.90;;;;;;5033618;28;20053;-70
2024/01/04 09:41:29;;;;;;;19.25;7.07;;;8.70;99.90;;;;;;5044334;28;20037;-70
2024/01/04 09:43:57;;;;;;;14.35;6.40;;;8.70;99.90;;;;;;5067154;28;20486;-70
2024/01/04 09:46:25;;;;;;;17.75;6.35;;;8.70;99.90;;;;;;5047165;28;20283;-70
2024/01/04 09:49:00;;;;;;;17.15;7.50;;;8.70;99.90;;;;;;5024492;28;20021;-70
2024/01/04 09:51:28;;;;;;;19.38;6.50;;;8.70;99.90;;;;;;5045592;28;20017;-70
2024/01/04 09:53:54;;;;;;;15.77;6.82;;;8.80;99.90;;;;;;5056237;28;20025;-69
2024/01/04 09:56:24;;;;;;;15.57;6.70;;;8.80;99.90;;;;;;5057647;28;20060;-69
2024/01/04 09:58:50;;;;;;;25.70;7.15;;;8.80;99.90;;;;;;5048217;28;20095;-69
2024/01/04 10:01:20;;;;;;;14.68;5.97;;;8.80;99.90;;;;;;5049677;28;20560;-69
2024/01/04 10:03:48;;;;;;;18.77;6.75;;;8.80;99.90;;;;;;5032153;28;20025;-70
2024/01/04 10:06:28;;;;;;;12.63;6.20;;;8.80;99.90;;;;;;5042580;28;20128;-70
2024/01/04 10:09:07;;;;;;;21.50;7.43;;;8.90;99.90;;;;;;5034200;28;20051;-70
2024/01/04 10:11:41;;;;;;;24.40;7.80;;;8.90;99.90;;;;;;5016709;28;20025;-69
2024/01/04 10:14:07;;;;;;;20.67;7.20;;;8.90;99.90;;;;;;5061754;28;20508;-70
2024/01/04 10:16:34;;;;;;;20.33;8.02;;;8.90;99.90;;;;;;5049227;28;20064;-70
2024/01/04 10:19:01;;;;;;;17.23;7.30;;;8.90;99.90;;;;;;5033260;28;20072;-70
2024/01/04 10:21:35;;;;;;;14.55;6.65;;;9.00;99.90;;;;;;5053902;28;20533;-69
2024/01/04 10:24:02;;;;;;;9.45;5.47;;;8.90;99.90;;;;;;5055815;28;20108;-71
2024/01/04 10:26:28;;;;;;;9.80;5.38;;;8.90;99.90;;;;;;5058648;28;20104;-70
2024/01/04 10:28:55;;;;;;;14.52;6.35;;;8.90;99.90;;;;;;5045276;28;20160;-70
2024/01/04 10:31:21;;;;;;;10.52;5.70;;;8.90;99.90;;;;;;5041097;28;20394;-69
2024/01/04 10:33:46;;;;;;;11.02;5.68;;;8.90;99.90;;;;;;5055328;28;20564;-70
2024/01/04 10:36:13;;;;;;;10.10;4.78;;;8.90;99.90;;;;;;5062038;28;20033;-70
2024/01/04 10:38:39;;;;;;;11.85;5.38;;;8.90;99.90;;;;;;5062310;28;20127;-70
2024/01/04 10:41:04;;;;;;;11.55;5.70;;;8.90;99.90;;;;;;5054551;28;20826;-70
2024/01/04 10:43:34;;;;;;;10.02;5.40;;;8.90;99.90;;;;;;5057947;28;20123;-69
2024/01/04 10:46:07;;;;;;;8.25;4.75;;;8.90;99.90;;;;;;5042543;28;20028;-70
2024/01/04 10:48:37;;;;;;;12.75;5.60;;;8.90;99.90;;;;;;5042008;28;20044;-70
2024/01/04 10:51:05;;;;;;;9.17;4.77;;;8.90;99.90;;;;;;5054333;28;20048;-69
2024/01/04 10:53:38;;;;;;;12.85;4.82;;;8.90;99.90;;;;;;5047355;28;20630;-70
2024/01/04 10:56:04;;;;;;;8.07;3.90;;;8.90;99.90;;;;;;5054519;28;20405;-70
2024/01/04 10:58:38;;;;;;;7.95;3.70;;;9.00;99.90;;;;;;5059095;28;20494;-69
2024/01/04 11:01:04;;;;;;;7.60;3.42;;;9.00;99.90;;;;;;5049587;28;20084;-70
2024/01/04 11:03:31;;;;;;;8.20;3.47;;;9.00;99.90;;;;;;5061234;28;20032;-70
2024/01/04 11:06:00;;;;;;;9.32;3.20;;;9.00;99.90;;;;;;5041322;28;20013;-70
2024/01/04 11:08:27;;;;;;;7.10;3.53;;;9.10;99.90;;;;;;5037318;28;20441;-70
2024/01/04 11:10:57;;;;;;;4.90;2.55;;;9.10;99.90;;;;;;5055899;28;20017;-70
2024/01/04 11:13:22;;;;;;;6.05;2.80;;;9.10;99.90;;;;;;5052194;28;20040;-70
2024/01/04 11:15:55;;;;;;;7.57;2.85;;;9.10;99.90;;;;;;5041557;28;20025;-70
2024/01/04 11:18:51;;;;;;;12.15;3.22;;;9.10;99.90;;;;;;5061410;28;20021;-69
2024/01/04 11:21:43;;;;;;;12.93;3.42;;;9.10;99.90;;;;;;5056896;28;20032;-71
2024/01/04 11:24:40;;;;;;;7.50;2.60;;;9.10;99.90;;;;;;5021090;28;20128;-70
2024/01/04 11:27:10;;;;;;;11.43;2.70;;;9.10;99.90;;;;;;5022510;28;20029;-69
2024/01/04 11:29:36;;;;;;;7.85;3.03;;;9.10;99.90;;;;;;5059427;28;20029;-70
2024/01/04 11:32:02;;;;;;;7.35;3.00;;;9.10;99.90;;;;;;5061865;28;20545;-70
2024/01/04 11:34:29;;;;;;;9.05;3.22;;;9.10;99.90;;;;;;5055448;28;20100;-71
2024/01/04 11:37:17;;;;;;;10.57;4.07;;;9.20;99.90;;;;;;5036707;28;20027;-71
2024/01/04 11:39:57;;;;;;;8.63;3.83;;;9.20;99.90;;;;;;5044251;28;20064;-71
2024/01/04 11:42:39;;;;;;;7.40;3.67;;;9.40;99.90;;;;;;5035765;28;20029;-71
2024/01/04 11:45:13;;;;;;;9.18;3.95;;;9.50;99.90;;;;;;5057923;28;20029;-71
2024/01/04 11:47:40;;;;;;;6.78;4.30;;;9.50;99.90;;;;;;5046247;28;20032;-70
2024/01/04 11:50:17;;;;;;;13.55;4.10;;;9.50;99.90;;;;;;5057956;28;20021;-70
2024/01/04 11:52:45;;;;;;;7.68;4.90;;;9.60;99.90;;;;;;5050470;28;20110;-70
2024/01/04 11:55:12;;;;;;;12.18;4.68;;;9.70;99.90;;;;;;5040460;28;20028;-71
2024/01/04 11:57:39;;;;;;;8.65;4.85;;;9.70;99.90;;;;;;5061366;28;20028;-71
2024/01/04 12:00:13;;;;;;;8.93;5.00;;;9.70;99.90;;;;;;5026429;28;20037;-71
2024/01/04 12:02:40;;;;;;;10.25;5.35;;;9.70;99.90;;;;;;5031746;28;20021;-71
2024/01/04 12:05:06;;;;;;;9.40;4.50;;;9.70;99.90;;;;;;5039977;28;20017;-71
2024/01/04 12:07:36;;;;;;;11.05;4.60;;;9.60;99.90;;;;;;5060482;28;20031;-71
2024/01/04 12:10:02;;;;;;;8.57;3.97;;;9.50;99.90;;;;;;5053411;28;20385;-71
2024/01/04 12:12:28;;;;;;;9.00;4.15;;;9.50;99.90;;;;;;5063106;28;20054;-69
2024/01/04 12:14:54;;;;;;;10.57;4.20;;;9.40;99.90;;;;;;5053608;28;20032;-70
2024/01/04 12:17:19;;;;;;;7.95;4.10;;;9.40;99.90;;;;;;5028591;28;20495;-71
2024/01/04 12:19:47;;;;;;;7.28;4.15;;;9.40;99.90;;;;;;5026904;28;20072;-70
2024/01/04 12:22:13;;;;;;;8.65;3.92;;;9.40;99.90;;;;;;5042459;28;20063;-71
2024/01/04 12:24:41;;;;;;;9.32;4.50;;;9.50;99.90;;;;;;5063273;28;20162;-70
2024/01/04 12:27:08;;;;;;;11.50;4.85;;;9.50;99.90;;;;;;5053291;28;20021;-70
2024/01/04 12:29:34;;;;;;;10.13;5.07;;;9.50;99.90;;;;;;5040326;28;20029;-71
2024/01/04 12:31:59;;;;;;;9.80;5.32;;;9.50;99.90;;;;;;5026768;28;20784;-71
2024/01/04 12:34:25;;;;;;;12.82;6.13;;;9.50;99.90;;;;;;5022053;28;20033;-71
2024/01/04 12:36:51;;;;;;;8.85;4.50;;;9.50;99.90;;;;;;5030261;28;20026;-71
2024/01/04 12:39:17;;;;;;;8.93;4.35;;;9.50;99.90;;;;;;5028735;28;20053;-70
2024/01/04 12:41:48;;;;;;;8.75;4.28;;;9.40;99.90;;;;;;5047790;28;20097;-70
2024/01/04 12:44:14;;;;;;;3.80;2.38;;;9.40;99.90;;;;;;5058930;28;20021;-70
2024/01/04 12:46:41;;;;;;;4.93;1.85;;;9.40;99.90;;;;;;5060490;28;20044;-68
2024/01/04 12:49:07;;;;;;;4.60;1.80;;;9.30;99.90;;;;;;5064067;28;20039;-70